sensor_id;sensor_type;location;lat;lon;timestamp;P1;durP1;ratioP1;P2;durP2;ratioP2
78958;SDS011;68361;47.820;13.216;2023-03-03T17:03:19;37.70;;;26.48;;
78958;SDS011;68361;47.820;13.216;2023-03-03T17:04:50;34.83;;;25.15;;
78958;SDS011;68361;47.820;13.216;2023-03-03T17:05:41;38.65;;;27.38;;
78958;SDS011;68361;47.820;13.216;2023-03-03T17:06:17;36.90;;;25.10;;
78958;SDS011;68361;47.820;13.216;2023-03-03T17:06:58;36.15;;;26.85;;
78958;SDS011;68361;47.820;13.216;2023-03-03T17:07:43;37.90;;;26.10;;
78958;SDS011;68361;47.820;13.216;2023-03-03T17:12:39;31.63;;;24.35;;
78958;SDS011;68361;47.820;13.216;2023-03-03T17:15:13;35.22;;;22.75;;
78958;SDS011;68361;47.820;13.216;2023-03-03T17:16:21;34.22;;;23.90;;
78958;SDS011;68361;47.820;13.216;2023-03-03T17:17:27;31.42;;;21.25;;
78958;SDS011;68361;47.820;13.216;2023-03-03T17:20:09;33.38;;;23.15;;
78958;SDS011;68361;47.820;13.216;2023-03-03T17:20:48;34.45;;;23.83;;
78958;SDS011;68361;47.820;13.216;2023-03-03T17:22:30;34.03;;;24.25;;
78958;SDS011;68361;47.820;13.216;2023-03-03T17:26:21;34.97;;;24.95;;
78958;SDS011;68361;47.820;13.216;2023-03-03T17:30:11;35.00;;;24.33;;
78958;SDS011;68361;47.820;13.216;2023-03-03T17:30:54;34.13;;;24.80;;
78958;SDS011;68361;47.820;13.216;2023-03-03T17:33:38;36.92;;;25.90;;
78958;SDS011;68361;47.820;13.216;2023-03-03T17:34:15;40.25;;;27.75;;
78958;SDS011;68361;47.820;13.216;2023-03-03T17:37:49;36.80;;;22.92;;
78958;SDS011;68361;47.820;13.216;2023-03-03T17:39:01;37.15;;;25.60;;
78958;SDS011;68361;47.820;13.216;2023-03-03T17:41:21;34.33;;;24.42;;
78958;SDS011;68361;47.820;13.216;2023-03-03T17:42:14;37.92;;;26.15;;
78958;SDS011;68361;47.820;13.216;2023-03-03T17:44:13;40.13;;;26.48;;
78958;SDS011;68361;47.820;13.216;2023-03-03T17:45:45;34.10;;;24.73;;
78958;SDS011;68361;47.820;13.216;2023-03-03T17:46:29;42.00;;;27.67;;
78958;SDS011;68361;47.820;13.216;2023-03-03T17:47:05;35.97;;;26.42;;
78958;SDS011;68361;47.820;13.216;2023-03-03T17:48:26;37.97;;;27.15;;
78958;SDS011;68361;47.820;13.216;2023-03-03T17:49:08;40.08;;;27.80;;
78958;SDS011;68361;47.820;13.216;2023-03-03T17:52:19;35.30;;;25.73;;
78958;SDS011;68361;47.820;13.216;2023-03-03T17:56:17;37.55;;;26.52;;
78958;SDS011;68361;47.820;13.216;2023-03-03T17:57:23;40.30;;;29.13;;
78958;SDS011;68361;47.820;13.216;2023-03-03T17:58:03;37.95;;;26.70;;
78958;SDS011;68361;47.820;13.216;2023-03-03T17:59:43;32.58;;;24.17;;
78958;SDS011;68361;47.820;13.216;2023-03-03T18:00:23;36.05;;;26.60;;
78958;SDS011;68361;47.820;13.216;2023-03-03T18:01:47;40.28;;;27.92;;
78958;SDS011;68361;47.820;13.216;2023-03-03T18:05:42;41.03;;;27.02;;
78958;SDS011;68361;47.820;13.216;2023-03-03T18:10:44;39.08;;;26.17;;
78958;SDS011;68361;47.820;13.216;2023-03-03T18:14:20;34.65;;;23.10;;
78958;SDS011;68361;47.820;13.216;2023-03-03T18:21:24;42.17;;;26.83;;
78958;SDS011;68361;47.820;13.216;2023-03-03T18:22:45;36.85;;;27.13;;
78958;SDS011;68361;47.820;13.216;2023-03-03T18:23:21;41.72;;;26.38;;
78958;SDS011;68361;47.820;13.216;2023-03-03T18:24:12;38.65;;;26.05;;
78958;SDS011;68361;47.820;13.216;2023-03-03T18:25:03;36.60;;;25.35;;
78958;SDS011;68361;47.820;13.216;2023-03-03T18:26:37;35.20;;;24.15;;
78958;SDS011;68361;47.820;13.216;2023-03-03T18:28:44;38.28;;;26.40;;
78958;SDS011;68361;47.820;13.216;2023-03-03T18:29:20;35.13;;;25.63;;
78958;SDS011;68361;47.820;13.216;2023-03-03T18:30:57;33.80;;;24.33;;
78958;SDS011;68361;47.820;13.216;2023-03-03T18:31:30;36.10;;;26.02;;
78958;SDS011;68361;47.820;13.216;2023-03-03T18:32:16;36.70;;;25.25;;
78958;SDS011;68361;47.820;13.216;2023-03-03T18:34:08;38.97;;;28.23;;
78958;SDS011;68361;47.820;13.216;2023-03-03T18:36:06;33.78;;;23.92;;
78958;SDS011;68361;47.820;13.216;2023-03-03T18:38:48;34.25;;;26.15;;
78958;SDS011;68361;47.820;13.216;2023-03-03T18:39:41;40.50;;;27.63;;
78958;SDS011;68361;47.820;13.216;2023-03-03T18:40:32;37.17;;;25.33;;
78958;SDS011;68361;47.820;13.216;2023-03-03T18:41:08;37.22;;;25.02;;
78958;SDS011;68361;47.820;13.216;2023-03-03T18:42:42;35.08;;;25.08;;
78958;SDS011;68361;47.820;13.216;2023-03-03T18:44:26;37.03;;;25.77;;
78958;SDS011;68361;47.820;13.216;2023-03-03T18:45:09;37.65;;;27.27;;
78958;SDS011;68361;47.820;13.216;2023-03-03T18:45:45;38.38;;;25.65;;
78958;SDS011;68361;47.820;13.216;2023-03-03T18:46:53;38.67;;;27.38;;
78958;SDS011;68361;47.820;13.216;2023-03-03T18:50:53;34.53;;;26.02;;
78958;SDS011;68361;47.820;13.216;2023-03-03T18:52:24;38.53;;;26.90;;
78958;SDS011;68361;47.820;13.216;2023-03-03T18:53:04;35.40;;;25.10;;
78958;SDS011;68361;47.820;13.216;2023-03-03T18:53:37;39.38;;;26.73;;
78958;SDS011;68361;47.820;13.216;2023-03-03T18:54:34;37.95;;;27.10;;
78958;SDS011;68361;47.820;13.216;2023-03-03T18:55:42;37.08;;;25.02;;
78958;SDS011;68361;47.820;13.216;2023-03-03T18:56:39;37.35;;;26.38;;
78958;SDS011;68361;47.820;13.216;2023-03-03T18:57:18;32.53;;;23.13;;
78958;SDS011;68361;47.820;13.216;2023-03-03T18:58:43;38.53;;;26.60;;
78958;SDS011;68361;47.820;13.216;2023-03-03T19:00:13;35.05;;;24.98;;
78958;SDS011;68361;47.820;13.216;2023-03-03T19:00:46;39.33;;;25.40;;
78958;SDS011;68361;47.820;13.216;2023-03-03T19:02:51;43.30;;;27.75;;
78958;SDS011;68361;47.820;13.216;2023-03-03T19:04:53;42.70;;;28.00;;
78958;SDS011;68361;47.820;13.216;2023-03-03T19:05:33;39.83;;;27.85;;
78958;SDS011;68361;47.820;13.216;2023-03-03T19:06:07;42.72;;;26.08;;
78958;SDS011;68361;47.820;13.216;2023-03-03T19:07:27;40.75;;;26.63;;
78958;SDS011;68361;47.820;13.216;2023-03-03T19:08:02;35.60;;;23.08;;
78958;SDS011;68361;47.820;13.216;2023-03-03T19:08:55;32.50;;;23.30;;
78958;SDS011;68361;47.820;13.216;2023-03-03T19:10:56;40.03;;;27.00;;
78958;SDS011;68361;47.820;13.216;2023-03-03T19:12:15;36.13;;;24.98;;
78958;SDS011;68361;47.820;13.216;2023-03-03T19:12:57;37.90;;;28.17;;
78958;SDS011;68361;47.820;13.216;2023-03-03T19:14:13;40.08;;;27.73;;
78958;SDS011;68361;47.820;13.216;2023-03-03T19:14:48;38.30;;;27.73;;
78958;SDS011;68361;47.820;13.216;2023-03-03T19:16:03;35.83;;;26.05;;
78958;SDS011;68361;47.820;13.216;2023-03-03T19:16:54;36.22;;;25.05;;
78958;SDS011;68361;47.820;13.216;2023-03-03T19:17:40;34.78;;;25.67;;
78958;SDS011;68361;47.820;13.216;2023-03-03T19:18:27;39.25;;;27.10;;
78958;SDS011;68361;47.820;13.216;2023-03-03T19:19:24;36.25;;;24.25;;
78958;SDS011;68361;47.820;13.216;2023-03-03T19:20:10;35.55;;;24.60;;
78958;SDS011;68361;47.820;13.216;2023-03-03T19:21:28;37.63;;;26.63;;
78958;SDS011;68361;47.820;13.216;2023-03-03T19:23:01;36.38;;;25.02;;
78958;SDS011;68361;47.820;13.216;2023-03-03T19:24:32;37.53;;;25.58;;
78958;SDS011;68361;47.820;13.216;2023-03-03T19:25:39;42.22;;;29.92;;
78958;SDS011;68361;47.820;13.216;2023-03-03T19:28:33;32.75;;;22.55;;
78958;SDS011;68361;47.820;13.216;2023-03-03T19:29:10;32.78;;;23.20;;
78958;SDS011;68361;47.820;13.216;2023-03-03T19:30:19;44.00;;;29.58;;
78958;SDS011;68361;47.820;13.216;2023-03-03T19:30:56;46.38;;;31.13;;
78958;SDS011;68361;47.820;13.216;2023-03-03T19:32:26;36.42;;;24.48;;
78958;SDS011;68361;47.820;13.216;2023-03-03T19:33:58;41.60;;;28.23;;
78958;SDS011;68361;47.820;13.216;2023-03-03T19:35:29;38.88;;;27.27;;
78958;SDS011;68361;47.820;13.216;2023-03-03T19:37:27;36.65;;;25.17;;
78958;SDS011;68361;47.820;13.216;2023-03-03T19:39:40;40.20;;;25.60;;
78958;SDS011;68361;47.820;13.216;2023-03-03T19:43:25;32.53;;;23.10;;
78958;SDS011;68361;47.820;13.216;2023-03-03T19:46:54;37.00;;;25.42;;
78958;SDS011;68361;47.820;13.216;2023-03-03T19:47:34;36.63;;;23.85;;
78958;SDS011;68361;47.820;13.216;2023-03-03T19:49:27;37.67;;;23.45;;
78958;SDS011;68361;47.820;13.216;2023-03-03T19:50:13;37.42;;;24.05;;
78958;SDS011;68361;47.820;13.216;2023-03-03T19:50:57;33.78;;;24.13;;
78958;SDS011;68361;47.820;13.216;2023-03-03T19:52:39;33.08;;;22.73;;
78958;SDS011;68361;47.820;13.216;2023-03-03T19:53:27;34.10;;;21.77;;
78958;SDS011;68361;47.820;13.216;2023-03-03T19:55:36;34.28;;;24.33;;
78958;SDS011;68361;47.820;13.216;2023-03-03T19:56:17;36.63;;;24.95;;
78958;SDS011;68361;47.820;13.216;2023-03-03T19:56:53;37.63;;;26.15;;
78958;SDS011;68361;47.820;13.216;2023-03-03T19:57:33;38.80;;;25.88;;
78958;SDS011;68361;47.820;13.216;2023-03-03T20:00:45;33.55;;;22.65;;
78958;SDS011;68361;47.820;13.216;2023-03-03T20:05:39;32.25;;;21.05;;
78958;SDS011;68361;47.820;13.216;2023-03-03T20:07:06;33.85;;;24.38;;
78958;SDS011;68361;47.820;13.216;2023-03-03T20:08:30;36.15;;;22.88;;
78958;SDS011;68361;47.820;13.216;2023-03-03T20:11:53;39.08;;;24.83;;
78958;SDS011;68361;47.820;13.216;2023-03-03T20:14:41;32.05;;;22.70;;
78958;SDS011;68361;47.820;13.216;2023-03-03T20:15:17;35.63;;;23.98;;
78958;SDS011;68361;47.820;13.216;2023-03-03T20:16:38;34.80;;;25.27;;
78958;SDS011;68361;47.820;13.216;2023-03-03T20:19:01;35.90;;;24.60;;
78958;SDS011;68361;47.820;13.216;2023-03-03T20:19:48;34.53;;;23.17;;
78958;SDS011;68361;47.820;13.216;2023-03-03T20:20:35;37.75;;;24.58;;
78958;SDS011;68361;47.820;13.216;2023-03-03T20:23:45;39.78;;;27.00;;
78958;SDS011;68361;47.820;13.216;2023-03-03T20:24:33;38.38;;;25.15;;
78958;SDS011;68361;47.820;13.216;2023-03-03T20:25:39;32.13;;;23.05;;
78958;SDS011;68361;47.820;13.216;2023-03-03T20:31:38;36.13;;;25.40;;
78958;SDS011;68361;47.820;13.216;2023-03-03T20:33:30;35.72;;;24.70;;
78958;SDS011;68361;47.820;13.216;2023-03-03T20:36:54;29.02;;;20.08;;
78958;SDS011;68361;47.820;13.216;2023-03-03T20:39:10;46.33;;;30.17;;
78958;SDS011;68361;47.820;13.216;2023-03-03T20:43:57;51.88;;;32.50;;
78958;SDS011;68361;47.820;13.216;2023-03-03T20:47:51;33.08;;;23.40;;
78958;SDS011;68361;47.820;13.216;2023-03-03T20:49:38;32.50;;;23.30;;
78958;SDS011;68361;47.820;13.216;2023-03-03T20:50:22;37.45;;;26.00;;
78958;SDS011;68361;47.820;13.216;2023-03-03T20:52:28;35.55;;;22.40;;
78958;SDS011;68361;47.820;13.216;2023-03-03T20:53:55;39.15;;;26.17;;
78958;SDS011;68361;47.820;13.216;2023-03-03T20:54:39;40.00;;;26.35;;
78958;SDS011;68361;47.820;13.216;2023-03-03T20:55:18;35.50;;;23.75;;
78958;SDS011;68361;47.820;13.216;2023-03-03T20:56:35;38.78;;;24.33;;
78958;SDS011;68361;47.820;13.216;2023-03-03T20:57:33;36.75;;;24.58;;
78958;SDS011;68361;47.820;13.216;2023-03-03T21:00:55;40.63;;;24.38;;
78958;SDS011;68361;47.820;13.216;2023-03-03T21:04:48;35.92;;;23.65;;
78958;SDS011;68361;47.820;13.216;2023-03-03T21:05:08;31.35;;;21.10;;
78958;SDS011;68361;47.820;13.216;2023-03-03T21:05:55;32.92;;;22.25;;
78958;SDS011;68361;47.820;13.216;2023-03-03T21:06:35;35.15;;;23.45;;
78958;SDS011;68361;47.820;13.216;2023-03-03T21:09:28;31.83;;;21.02;;
78958;SDS011;68361;47.820;13.216;2023-03-03T21:10:14;33.38;;;22.70;;
78958;SDS011;68361;47.820;13.216;2023-03-03T21:10:56;36.22;;;22.95;;
78958;SDS011;68361;47.820;13.216;2023-03-03T21:12:09;35.08;;;23.50;;
78958;SDS011;68361;47.820;13.216;2023-03-03T21:12:57;40.15;;;24.17;;
78958;SDS011;68361;47.820;13.216;2023-03-03T21:14:34;35.13;;;22.23;;
78958;SDS011;68361;47.820;13.216;2023-03-03T21:15:09;35.95;;;24.45;;
78958;SDS011;68361;47.820;13.216;2023-03-03T21:15:53;35.25;;;22.45;;
78958;SDS011;68361;47.820;13.216;2023-03-03T21:16:33;36.90;;;22.80;;
78958;SDS011;68361;47.820;13.216;2023-03-03T21:17:25;35.53;;;24.35;;
78958;SDS011;68361;47.820;13.216;2023-03-03T21:17:58;35.35;;;22.73;;
78958;SDS011;68361;47.820;13.216;2023-03-03T21:18:30;36.00;;;23.98;;
78958;SDS011;68361;47.820;13.216;2023-03-03T21:19:03;38.20;;;25.10;;
78958;SDS011;68361;47.820;13.216;2023-03-03T21:19:42;35.33;;;24.55;;
78958;SDS011;68361;47.820;13.216;2023-03-03T21:20:50;36.42;;;24.88;;
78958;SDS011;68361;47.820;13.216;2023-03-03T21:21:22;38.80;;;26.80;;
78958;SDS011;68361;47.820;13.216;2023-03-03T21:21:55;34.90;;;24.35;;
78958;SDS011;68361;47.820;13.216;2023-03-03T21:22:27;36.85;;;25.75;;
78958;SDS011;68361;47.820;13.216;2023-03-03T21:22:59;33.75;;;23.20;;
78958;SDS011;68361;47.820;13.216;2023-03-03T21:23:32;35.30;;;23.08;;
78958;SDS011;68361;47.820;13.216;2023-03-03T21:24:04;37.38;;;23.67;;
78958;SDS011;68361;47.820;13.216;2023-03-03T21:26:10;32.88;;;23.45;;
78958;SDS011;68361;47.820;13.216;2023-03-03T21:26:47;38.97;;;25.55;;
78958;SDS011;68361;47.820;13.216;2023-03-03T21:27:22;40.33;;;26.65;;
78958;SDS011;68361;47.820;13.216;2023-03-03T21:28:59;39.83;;;26.20;;
78958;SDS011;68361;47.820;13.216;2023-03-03T21:29:34;33.67;;;23.00;;
78958;SDS011;68361;47.820;13.216;2023-03-03T21:31:45;33.22;;;22.73;;
78958;SDS011;68361;47.820;13.216;2023-03-03T21:32:33;36.70;;;24.48;;
78958;SDS011;68361;47.820;13.216;2023-03-03T21:33:15;30.90;;;21.05;;
78958;SDS011;68361;47.820;13.216;2023-03-03T21:35:03;34.92;;;23.65;;
78958;SDS011;68361;47.820;13.216;2023-03-03T21:35:55;35.50;;;24.90;;
78958;SDS011;68361;47.820;13.216;2023-03-03T21:37:04;38.17;;;26.65;;
78958;SDS011;68361;47.820;13.216;2023-03-03T21:37:44;37.30;;;25.50;;
78958;SDS011;68361;47.820;13.216;2023-03-03T21:38:32;33.53;;;24.17;;
78958;SDS011;68361;47.820;13.216;2023-03-03T21:40:41;30.70;;;20.13;;
78958;SDS011;68361;47.820;13.216;2023-03-03T21:41:15;34.70;;;23.42;;
78958;SDS011;68361;47.820;13.216;2023-03-03T21:41:50;40.08;;;25.98;;
78958;SDS011;68361;47.820;13.216;2023-03-03T21:42:38;34.35;;;24.92;;
78958;SDS011;68361;47.820;13.216;2023-03-03T21:43:13;38.20;;;25.88;;
78958;SDS011;68361;47.820;13.216;2023-03-03T21:44:04;38.30;;;26.20;;
78958;SDS011;68361;47.820;13.216;2023-03-03T21:45:14;38.33;;;24.08;;
78958;SDS011;68361;47.820;13.216;2023-03-03T21:45:47;37.63;;;26.30;;
78958;SDS011;68361;47.820;13.216;2023-03-03T21:46:22;43.35;;;29.40;;
78958;SDS011;68361;47.820;13.216;2023-03-03T21:46:55;45.50;;;28.73;;
78958;SDS011;68361;47.820;13.216;2023-03-03T21:47:28;42.63;;;26.67;;
78958;SDS011;68361;47.820;13.216;2023-03-03T21:48:02;44.60;;;29.27;;
78958;SDS011;68361;47.820;13.216;2023-03-03T21:48:38;40.40;;;28.77;;
78958;SDS011;68361;47.820;13.216;2023-03-03T21:49:10;50.67;;;32.40;;
78958;SDS011;68361;47.820;13.216;2023-03-03T21:49:43;45.65;;;30.08;;
78958;SDS011;68361;47.820;13.216;2023-03-03T21:50:15;42.75;;;29.27;;
78958;SDS011;68361;47.820;13.216;2023-03-03T21:50:47;45.63;;;30.95;;
78958;SDS011;68361;47.820;13.216;2023-03-03T21:51:20;46.25;;;31.02;;
78958;SDS011;68361;47.820;13.216;2023-03-03T21:51:54;47.88;;;29.95;;
78958;SDS011;68361;47.820;13.216;2023-03-03T21:52:27;48.25;;;31.27;;
78958;SDS011;68361;47.820;13.216;2023-03-03T21:52:58;44.40;;;29.88;;
78958;SDS011;68361;47.820;13.216;2023-03-03T21:53:30;44.58;;;31.42;;
78958;SDS011;68361;47.820;13.216;2023-03-03T21:54:02;43.47;;;29.77;;
78958;SDS011;68361;47.820;13.216;2023-03-03T21:54:33;44.45;;;30.42;;
78958;SDS011;68361;47.820;13.216;2023-03-03T21:55:05;46.22;;;31.65;;
78958;SDS011;68361;47.820;13.216;2023-03-03T21:55:37;48.28;;;32.22;;
78958;SDS011;68361;47.820;13.216;2023-03-03T21:56:11;45.03;;;31.45;;
78958;SDS011;68361;47.820;13.216;2023-03-03T21:56:44;44.83;;;30.95;;
78958;SDS011;68361;47.820;13.216;2023-03-03T21:57:18;45.97;;;30.48;;
78958;SDS011;68361;47.820;13.216;2023-03-03T21:57:49;44.28;;;29.17;;
78958;SDS011;68361;47.820;13.216;2023-03-03T21:58:21;39.25;;;28.42;;
78958;SDS011;68361;47.820;13.216;2023-03-03T21:58:53;43.40;;;29.50;;
78958;SDS011;68361;47.820;13.216;2023-03-03T21:59:24;44.33;;;28.90;;
78958;SDS011;68361;47.820;13.216;2023-03-03T21:59:56;38.15;;;27.02;;
78958;SDS011;68361;47.820;13.216;2023-03-03T22:00:28;40.42;;;27.40;;
78958;SDS011;68361;47.820;13.216;2023-03-03T22:00:59;39.92;;;28.15;;
78958;SDS011;68361;47.820;13.216;2023-03-03T22:01:31;41.25;;;26.75;;
78958;SDS011;68361;47.820;13.216;2023-03-03T22:02:03;40.30;;;27.80;;
78958;SDS011;68361;47.820;13.216;2023-03-03T22:02:34;40.75;;;26.08;;
78958;SDS011;68361;47.820;13.216;2023-03-03T22:03:06;39.85;;;26.90;;
78958;SDS011;68361;47.820;13.216;2023-03-03T22:03:38;40.10;;;26.77;;
78958;SDS011;68361;47.820;13.216;2023-03-03T22:04:10;37.60;;;27.05;;
78958;SDS011;68361;47.820;13.216;2023-03-03T22:04:42;42.33;;;26.95;;
78958;SDS011;68361;47.820;13.216;2023-03-03T22:05:14;42.25;;;27.02;;
78958;SDS011;68361;47.820;13.216;2023-03-03T22:05:46;40.92;;;27.52;;
78958;SDS011;68361;47.820;13.216;2023-03-03T22:06:20;42.28;;;27.88;;
78958;SDS011;68361;47.820;13.216;2023-03-03T22:06:52;39.83;;;25.95;;
78958;SDS011;68361;47.820;13.216;2023-03-03T22:07:24;42.25;;;28.95;;
78958;SDS011;68361;47.820;13.216;2023-03-03T22:07:56;38.88;;;26.50;;
78958;SDS011;68361;47.820;13.216;2023-03-03T22:08:27;40.75;;;27.17;;
78958;SDS011;68361;47.820;13.216;2023-03-03T22:08:59;41.88;;;26.70;;
78958;SDS011;68361;47.820;13.216;2023-03-03T22:09:31;39.47;;;26.17;;
78958;SDS011;68361;47.820;13.216;2023-03-03T22:10:02;37.45;;;26.35;;
78958;SDS011;68361;47.820;13.216;2023-03-03T22:10:34;39.92;;;27.17;;
78958;SDS011;68361;47.820;13.216;2023-03-03T22:11:06;34.83;;;24.27;;
78958;SDS011;68361;47.820;13.216;2023-03-03T22:11:38;40.50;;;26.17;;
78958;SDS011;68361;47.820;13.216;2023-03-03T22:12:09;37.70;;;25.30;;
78958;SDS011;68361;47.820;13.216;2023-03-03T22:12:41;39.78;;;25.60;;
78958;SDS011;68361;47.820;13.216;2023-03-03T22:13:13;36.75;;;24.80;;
78958;SDS011;68361;47.820;13.216;2023-03-03T22:13:46;36.10;;;25.48;;
78958;SDS011;68361;47.820;13.216;2023-03-03T22:14:18;37.55;;;25.98;;
78958;SDS011;68361;47.820;13.216;2023-03-03T22:14:49;41.58;;;26.98;;
78958;SDS011;68361;47.820;13.216;2023-03-03T22:15:21;37.33;;;25.55;;
78958;SDS011;68361;47.820;13.216;2023-03-03T22:15:53;38.28;;;25.75;;
78958;SDS011;68361;47.820;13.216;2023-03-03T22:16:25;33.92;;;25.00;;
78958;SDS011;68361;47.820;13.216;2023-03-03T22:16:57;39.20;;;24.50;;
78958;SDS011;68361;47.820;13.216;2023-03-03T22:17:29;38.13;;;26.33;;
78958;SDS011;68361;47.820;13.216;2023-03-03T22:18:00;39.28;;;26.42;;
78958;SDS011;68361;47.820;13.216;2023-03-03T22:18:32;37.50;;;25.63;;
78958;SDS011;68361;47.820;13.216;2023-03-03T22:19:04;36.72;;;25.13;;
78958;SDS011;68361;47.820;13.216;2023-03-03T22:19:36;34.45;;;22.83;;
78958;SDS011;68361;47.820;13.216;2023-03-03T22:20:09;36.35;;;25.17;;
78958;SDS011;68361;47.820;13.216;2023-03-03T22:20:41;37.95;;;25.00;;
78958;SDS011;68361;47.820;13.216;2023-03-03T22:21:13;35.42;;;24.25;;
78958;SDS011;68361;47.820;13.216;2023-03-03T22:21:45;34.85;;;25.65;;
78958;SDS011;68361;47.820;13.216;2023-03-03T22:22:17;35.33;;;25.17;;
78958;SDS011;68361;47.820;13.216;2023-03-03T22:22:49;39.38;;;26.02;;
78958;SDS011;68361;47.820;13.216;2023-03-03T22:23:21;33.65;;;24.70;;
78958;SDS011;68361;47.820;13.216;2023-03-03T22:23:52;36.45;;;25.27;;
78958;SDS011;68361;47.820;13.216;2023-03-03T22:24:24;33.67;;;23.27;;
78958;SDS011;68361;47.820;13.216;2023-03-03T22:24:56;41.60;;;25.05;;
78958;SDS011;68361;47.820;13.216;2023-03-03T22:25:27;35.80;;;24.75;;
78958;SDS011;68361;47.820;13.216;2023-03-03T22:25:59;39.22;;;26.23;;
78958;SDS011;68361;47.820;13.216;2023-03-03T22:26:32;36.97;;;24.80;;
78958;SDS011;68361;47.820;13.216;2023-03-03T22:27:04;36.10;;;25.58;;
78958;SDS011;68361;47.820;13.216;2023-03-03T22:27:37;41.17;;;26.92;;
78958;SDS011;68361;47.820;13.216;2023-03-03T22:28:08;37.22;;;26.98;;
78958;SDS011;68361;47.820;13.216;2023-03-03T22:28:40;37.88;;;25.60;;
78958;SDS011;68361;47.820;13.216;2023-03-03T22:29:14;35.55;;;25.92;;
78958;SDS011;68361;47.820;13.216;2023-03-03T22:29:47;35.65;;;25.95;;
78958;SDS011;68361;47.820;13.216;2023-03-03T22:30:19;37.83;;;24.00;;
78958;SDS011;68361;47.820;13.216;2023-03-03T22:30:50;37.55;;;26.52;;
78958;SDS011;68361;47.820;13.216;2023-03-03T22:31:22;37.80;;;26.40;;
78958;SDS011;68361;47.820;13.216;2023-03-03T22:31:54;38.42;;;26.35;;
78958;SDS011;68361;47.820;13.216;2023-03-03T22:32:26;35.53;;;24.80;;
78958;SDS011;68361;47.820;13.216;2023-03-03T22:32:58;35.10;;;24.95;;
78958;SDS011;68361;47.820;13.216;2023-03-03T22:33:30;37.58;;;26.77;;
78958;SDS011;68361;47.820;13.216;2023-03-03T22:34:02;36.35;;;25.88;;
78958;SDS011;68361;47.820;13.216;2023-03-03T22:34:34;40.85;;;25.38;;
78958;SDS011;68361;47.820;13.216;2023-03-03T22:35:06;34.85;;;25.52;;
78958;SDS011;68361;47.820;13.216;2023-03-03T22:35:38;34.25;;;24.33;;
78958;SDS011;68361;47.820;13.216;2023-03-03T22:36:10;39.05;;;27.15;;
78958;SDS011;68361;47.820;13.216;2023-03-03T22:36:42;35.70;;;25.40;;
78958;SDS011;68361;47.820;13.216;2023-03-03T22:37:13;36.20;;;26.23;;
78958;SDS011;68361;47.820;13.216;2023-03-03T22:37:45;37.67;;;26.38;;
78958;SDS011;68361;47.820;13.216;2023-03-03T22:38:17;35.88;;;25.20;;
78958;SDS011;68361;47.820;13.216;2023-03-03T22:38:48;35.75;;;24.98;;
78958;SDS011;68361;47.820;13.216;2023-03-03T22:39:20;36.13;;;25.33;;
78958;SDS011;68361;47.820;13.216;2023-03-03T22:39:51;36.88;;;25.77;;
78958;SDS011;68361;47.820;13.216;2023-03-03T22:40:23;36.70;;;25.80;;
78958;SDS011;68361;47.820;13.216;2023-03-03T22:40:55;38.33;;;24.98;;
78958;SDS011;68361;47.820;13.216;2023-03-03T22:41:26;34.80;;;24.05;;
78958;SDS011;68361;47.820;13.216;2023-03-03T22:41:58;39.10;;;24.35;;
78958;SDS011;68361;47.820;13.216;2023-03-03T22:42:30;38.30;;;25.65;;
78958;SDS011;68361;47.820;13.216;2023-03-03T22:43:01;32.42;;;23.48;;
78958;SDS011;68361;47.820;13.216;2023-03-03T22:43:33;31.52;;;23.40;;
78958;SDS011;68361;47.820;13.216;2023-03-03T22:44:05;31.85;;;22.73;;
78958;SDS011;68361;47.820;13.216;2023-03-03T22:44:37;32.72;;;24.00;;
78958;SDS011;68361;47.820;13.216;2023-03-03T22:45:09;35.78;;;24.27;;
78958;SDS011;68361;47.820;13.216;2023-03-03T22:45:40;34.72;;;24.48;;
78958;SDS011;68361;47.820;13.216;2023-03-03T22:46:12;35.60;;;25.00;;
78958;SDS011;68361;47.820;13.216;2023-03-03T22:46:44;33.25;;;24.67;;
78958;SDS011;68361;47.820;13.216;2023-03-03T22:47:15;33.63;;;23.75;;
78958;SDS011;68361;47.820;13.216;2023-03-03T22:47:47;35.42;;;24.05;;
78958;SDS011;68361;47.820;13.216;2023-03-03T22:48:19;33.28;;;23.95;;
78958;SDS011;68361;47.820;13.216;2023-03-03T22:48:50;34.90;;;24.77;;
78958;SDS011;68361;47.820;13.216;2023-03-03T22:49:22;35.97;;;25.75;;
78958;SDS011;68361;47.820;13.216;2023-03-03T22:49:54;34.95;;;24.45;;
78958;SDS011;68361;47.820;13.216;2023-03-03T22:50:25;32.70;;;24.23;;
78958;SDS011;68361;47.820;13.216;2023-03-03T22:50:57;33.85;;;24.40;;
78958;SDS011;68361;47.820;13.216;2023-03-03T22:51:29;34.42;;;24.35;;
78958;SDS011;68361;47.820;13.216;2023-03-03T22:52:01;31.10;;;23.02;;
78958;SDS011;68361;47.820;13.216;2023-03-03T22:52:32;34.97;;;23.38;;
78958;SDS011;68361;47.820;13.216;2023-03-03T22:53:05;35.28;;;23.20;;
78958;SDS011;68361;47.820;13.216;2023-03-03T22:53:37;32.33;;;24.20;;
78958;SDS011;68361;47.820;13.216;2023-03-03T22:54:08;34.28;;;24.23;;
78958;SDS011;68361;47.820;13.216;2023-03-03T22:54:40;34.63;;;24.35;;
78958;SDS011;68361;47.820;13.216;2023-03-03T22:55:12;35.97;;;23.58;;
78958;SDS011;68361;47.820;13.216;2023-03-03T22:55:43;34.67;;;25.67;;
78958;SDS011;68361;47.820;13.216;2023-03-03T22:56:15;33.10;;;23.08;;
78958;SDS011;68361;47.820;13.216;2023-03-03T22:56:47;34.35;;;23.85;;
78958;SDS011;68361;47.820;13.216;2023-03-03T22:57:18;36.75;;;25.70;;
78958;SDS011;68361;47.820;13.216;2023-03-03T22:57:50;35.83;;;24.90;;
78958;SDS011;68361;47.820;13.216;2023-03-03T22:58:22;34.97;;;24.73;;
78958;SDS011;68361;47.820;13.216;2023-03-03T22:58:56;31.35;;;22.00;;
78958;SDS011;68361;47.820;13.216;2023-03-03T22:59:28;34.42;;;24.98;;
78958;SDS011;68361;47.820;13.216;2023-03-03T23:00:00;36.72;;;24.92;;
78958;SDS011;68361;47.820;13.216;2023-03-03T23:00:33;33.85;;;24.88;;
78958;SDS011;68361;47.820;13.216;2023-03-03T23:01:05;32.85;;;22.83;;
78958;SDS011;68361;47.820;13.216;2023-03-03T23:01:37;33.10;;;24.77;;
78958;SDS011;68361;47.820;13.216;2023-03-03T23:02:08;32.50;;;23.98;;
78958;SDS011;68361;47.820;13.216;2023-03-03T23:02:40;32.67;;;23.70;;
78958;SDS011;68361;47.820;13.216;2023-03-03T23:03:12;33.47;;;23.52;;
78958;SDS011;68361;47.820;13.216;2023-03-03T23:03:44;32.17;;;23.55;;
78958;SDS011;68361;47.820;13.216;2023-03-03T23:04:16;37.10;;;25.40;;
78958;SDS011;68361;47.820;13.216;2023-03-03T23:04:48;36.35;;;25.17;;
78958;SDS011;68361;47.820;13.216;2023-03-03T23:05:21;30.58;;;23.67;;
78958;SDS011;68361;47.820;13.216;2023-03-03T23:05:53;32.75;;;23.88;;
78958;SDS011;68361;47.820;13.216;2023-03-03T23:06:25;31.42;;;22.65;;
78958;SDS011;68361;47.820;13.216;2023-03-03T23:06:56;33.17;;;24.38;;
78958;SDS011;68361;47.820;13.216;2023-03-03T23:07:29;30.95;;;23.65;;
78958;SDS011;68361;47.820;13.216;2023-03-03T23:08:01;33.40;;;24.40;;
78958;SDS011;68361;47.820;13.216;2023-03-03T23:08:34;30.13;;;22.38;;
78958;SDS011;68361;47.820;13.216;2023-03-03T23:09:06;33.42;;;23.63;;
78958;SDS011;68361;47.820;13.216;2023-03-03T23:09:38;34.05;;;24.88;;